• Join FlightAware (Why Join?)
  • Login
  • US Flag 
12:22PM EDT


 

Airport Tracker/Info


-or-


 

Live Flight TrackerFlight Track Log ✈ FLG3729 ✈ 24-Jun-2013 ✈ KALB - KDTW

Flight Track Log - Related Links

Times and Time Zones

All times are in EDT time to prevent confusion due to time zone crossing. See the FLG3729 flight status page for this flight to view local times or setup timezone preferences in your user account.

Time Position Orientation Groundspeed Altitude Reporting Facility
EDT Latitude Longitude Course Direction KTS MPH feet Rate Location/Type
06:13AM 42.7256 -73.8053 304° West 147 169 1,000  Level Boston Center
06:14AM 42.7022 -73.8469 233° Southwest 182 209 2,600 1,560 Climbing Boston Center
06:15AM 42.7264 -73.9211 294° West 229 264 4,400 1,860 Climbing Boston Center
06:15AM 42.7486 -73.9753 299° West 250 288 5,900 2,280 Climbing Boston Center
06:16AM 42.8297 -74.3078 281° West  Level FlightAware Approximate
06:16AM 42.7764 -74.0667 293° West 278 320 8,400  Level Boston Center
06:17AM 42.8507 -74.4374 283° West  Level FlightAware Approximate
06:17AM 42.8022 -74.1464 294° West 269 310 10,400  Level Boston Center
06:18AM 42.8809 -74.5617 304° West  Level FlightAware Approximate
06:18AM 42.8419 -74.2806 292° West 307 353 11,600  Level Boston Center
06:19AM 42.8756 -74.3894 293° West 340 391 13,000 1,560 Climbing Boston Center
06:20AM 42.9169 -74.5239 293° West 353 406 14,700 1,500 Climbing Boston Center
06:21AM 42.9356 -74.6408 282° West 358 412 16,000 1,200 Climbing Boston Center
06:22AM 42.9408 -74.7942 273° West 372 428 17,100 900 Climbing Boston Center
06:23AM 42.9422 -74.9275 271° West 378 435 17,900 960 Climbing Boston Center
06:24AM 42.9453 -75.0694 272° West 383 441 19,100 1,260 Climbing Boston Center
06:25AM 42.9461 -75.2114 271° West 383 441 20,500 1,200 Climbing Boston Center
06:26AM 42.9467 -75.3533 270° West 383 441 21,600 960 Climbing Boston Center
06:27AM 42.9492 -75.4953 271° West 383 441 22,500 840 Climbing Boston Center
06:28AM 42.9514 -75.6403 271° West 383 441 23,300 720 Climbing Boston Center
06:29AM 42.9514 -75.7906 270° West 383 441 24,000 660 Climbing Boston Center
06:30AM 42.9531 -75.9381 271° West 388 447 24,700 660 Climbing Boston Center
06:31AM 42.9547 -76.0886 271° West 393 452 25,400 720 Climbing Boston Center
06:33AM 42.9522 -76.4186 270° West 395 455 27,000 720 Climbing Cleveland Center
06:34AM 42.9514 -76.5719 270° West 406 467 27,800 480 Climbing Cleveland Center
06:35AM 42.9514 -76.6967 270° West 406 467 28,000 60 Climbing Cleveland Center
06:36AM 42.9508 -76.8700 270° West 411 473 28,000  Level Cleveland Center
06:37AM 42.9497 -77.0317 270° West 424 488 28,000  Level Cleveland Center
06:38AM 42.9483 -77.1964 269° West 429 494 28,000  Level Cleveland Center
06:39AM 42.9453 -77.3839 269° West 442 509 28,000  Level Cleveland Center
06:40AM 42.9142 -77.5442 255° West 442 509 28,000  Level Cleveland Center
06:41AM 42.8831 -77.7072 255° West 448 516 28,000  Level Cleveland Center
06:42AM 42.8494 -77.8731 255° West 453 521 28,000  Level Cleveland Center
06:43AM 42.8200 -78.0383 256° West 453 521 28,000  Level Cleveland Center
06:44AM 42.7983 -78.2006 260° West 452 520 28,000  Level Cleveland Center
06:45AM 42.7956 -78.3733 269° West 452 520 28,000  Level Cleveland Center
06:46AM 42.7903 -78.5406 268° West 452 520 28,000  Level Cleveland Center
06:47AM 42.7869 -78.7103 269° West 452 520 28,000  Level Cleveland Center
06:48AM 42.7792 -78.8831 267° West 452 520 28,000  Level Cleveland Center
06:49AM 42.7792 -79.0444 270° West 452 520 28,000  Level Cleveland Center
06:50AM 42.7731 -79.2142 267° West 446 513 28,000  Level Cleveland Center
06:51AM 42.7708 -79.3839 269° West 446 513 28,000  Level Cleveland Center
06:52AM 42.7642 -79.5511 267° West 446 513 28,000  Level Cleveland Center
06:53AM 42.7592 -79.7150 268° West 440 506 28,000  Level Cleveland Center
06:54AM 42.7519 -79.8847 267° West 440 506 28,000  Level Cleveland Center
06:55AM 42.7403 -80.0489 265° West 440 506 28,000  Level Cleveland Center
06:56AM 42.7347 -80.2186 268° West 440 506 28,000  Level Cleveland Center
06:57AM 42.7289 -80.3853 267° West 440 506 28,000  Level Cleveland Center
06:58AM 42.7208 -80.5522 266° West 440 506 28,000 -60 Level Cleveland Center
06:59AM 42.7144 -80.7217 267° West 445 512 27,900 -900 Descending Cleveland Center
07:00AM 42.7078 -80.8883 267° West 445 512 26,300 -1,560 Descending Cleveland Center
07:01AM 42.6886 -81.0464 261° West 445 512 24,800 -1,320 Descending Cleveland Center
07:02AM 42.6733 -81.2044 263° West 430 495 23,700 -1,140 Descending Cleveland Center
07:03AM 42.6558 -81.3397 260° West 424 488 22,600 -1,140 Descending Cleveland Center
07:04AM 42.6381 -81.4892 261° West 414 476 21,500 -1,080 Descending Cleveland Center
07:05AM 42.6200 -81.6356 261° West 402 463 20,500 -780 Descending Cleveland Center
07:06AM 42.6042 -81.7764 261° West 389 448 20,000 -300 Descending Cleveland Center
07:07AM 42.5858 -81.9114 260° West 384 442 20,000 -900 Level Cleveland Center
07:08AM 42.5675 -82.0519 260° West 384 442 18,200 -1,920 Descending Cleveland Center
07:09AM 42.5531 -82.1983 262° West 364 419 16,300 -1,680 Descending Cleveland Center
07:10AM 42.5367 -82.3217 260° West 373 429 14,900 -1,560 Descending Cleveland Center
07:11AM 42.5200 -82.4508 260° West 367 422 13,200 -1,500 Descending Cleveland Center
07:12AM 42.4972 -82.5742 256° West 361 415 12,000 -1,380 Descending Cleveland Center
07:13AM 42.4597 -82.6800 244° Southwest 335 386 10,500 -1,500 Descending Cleveland Center
07:14AM 42.4392 -82.7778 254° West 303 349 9,000 -1,620 Descending Cleveland Center
07:15AM 42.4269 -82.8786 261° West 280 322 7,300 -1,500 Descending Cleveland Center
07:16AM 42.4208 -82.9711 265° West 268 308 6,000 -900 Descending Cleveland Center
07:17AM 42.4083 -83.0692 260° West 268 308 5,600 -720 Descending Cleveland Center
07:18AM 42.3967 -83.1306 256° West 257 296 5,000 -600 Descending Cleveland Center
07:18AM 42.3833 -83.1581 237° Southwest 263 303 5,000 -840 Level Cleveland Center
07:19AM 42.3594 -83.2078 237° Southwest 242 278 4,200 -1,320 Descending Cleveland Center
07:20AM 42.3164 -83.2622 223° Southwest 195 224 3,000 -1,200 Descending Cleveland Center